Time;durP1;ratioP1;P1;durP2;ratioP2;P2;SDS_P1;SDS_P2;PMS_P1;PMS_P2;Temp;Humidity;BMP_temperature;BMP_pressure;BME280_temperature;BME280_humidity;BME280_pressure;Samples;Min_cycle;Max_cycle;Signal;HPM_P1;HPM_P2
2021/08/06 00:00:07;;;;;;;9.25;2.20;;;;;;;14.94;90.72;98841.69;4873538;29;20401;-87
2021/08/06 00:02:32;;;;;;;8.20;2.45;;;;;;;14.86;90.60;98824.00;4886989;29;20111;-87
2021/08/06 00:04:58;;;;;;;9.00;2.67;;;;;;;14.90;90.92;98840.56;4890536;29;20112;-87
2021/08/06 00:07:23;;;;;;;9.43;2.95;;;;;;;14.88;90.56;98840.00;4887512;29;20017;-87
2021/08/06 00:09:50;;;;;;;9.27;2.33;;;;;;;14.63;90.69;98819.66;4888328;29;20025;-87
2021/08/06 00:12:15;;;;;;;9.13;2.22;;;;;;;14.73;90.70;98830.59;4890373;29;20036;-86
2021/08/06 00:14:41;;;;;;;5.88;2.25;;;;;;;14.82;90.43;98852.63;4882733;29;20028;-87
2021/08/06 00:17:06;;;;;;;9.70;2.08;;;;;;;14.83;90.78;98846.16;4875160;29;20051;-87
2021/08/06 00:19:31;;;;;;;5.40;1.63;;;;;;;14.79;90.58;98847.72;4875187;29;20028;-87
2021/08/06 00:21:57;;;;;;;5.72;1.60;;;;;;;14.77;90.45;98857.16;4890345;29;20139;-87
2021/08/06 00:24:22;;;;;;;5.18;1.60;;;;;;;14.75;90.66;98857.41;4876162;29;20032;-87
2021/08/06 00:26:48;;;;;;;5.97;2.17;;;;;;;14.77;90.49;98873.41;4888572;29;20028;-88
2021/08/06 00:29:13;;;;;;;7.40;2.20;;;;;;;14.75;90.73;98876.34;4903321;29;20028;-86
2021/08/06 00:31:39;;;;;;;8.35;2.40;;;;;;;14.72;91.43;98874.94;4889191;29;20044;-87
2021/08/06 00:34:05;;;;;;;4.10;1.88;;;;;;;14.70;91.39;98874.38;4894366;29;20032;-88
2021/08/06 00:36:31;;;;;;;8.45;2.15;;;;;;;14.70;91.59;98892.50;4880558;29;20021;-90
2021/08/06 00:38:56;;;;;;;10.88;2.60;;;;;;;14.68;91.43;98884.63;4880668;29;20092;-88
2021/08/06 00:41:22;;;;;;;9.32;2.58;;;;;;;14.64;91.07;98877.25;4880703;29;20033;-88
2021/08/06 00:43:47;;;;;;;11.90;2.40;;;;;;;14.65;91.16;98884.31;4880652;29;20096;-88
2021/08/06 00:46:16;;;;;;;8.98;2.85;;;;;;;14.63;90.69;98889.97;4886211;29;20450;-88
2021/08/06 00:48:42;;;;;;;7.53;3.10;;;;;;;14.62;90.98;98884.81;4889060;29;20088;-88
2021/08/06 00:51:08;;;;;;;9.23;2.42;;;;;;;14.67;90.80;98895.69;4889044;29;20047;-85
2021/08/06 00:53:34;;;;;;;10.40;3.22;;;;;;;14.39;90.67;98856.03;4889797;29;20028;-86
2021/08/06 00:55:59;;;;;;;11.70;3.20;;;;;;;14.54;90.39;98882.53;4870565;29;20387;-87
2021/08/06 00:58:25;;;;;;;9.57;3.15;;;;;;;14.59;90.48;98882.59;4886079;29;20587;-87
2021/08/06 01:00:50;;;;;;;8.95;3.30;;;;;;;14.55;90.52;98887.66;4875036;29;20024;-87
2021/08/06 01:03:27;;;;;;;8.68;3.17;;;;;;;14.48;90.38;98889.72;4873435;29;20029;-88
2021/08/06 01:06:19;;;;;;;8.07;3.28;;;;;;;14.52;91.07;98896.25;4889655;29;20020;-86
2021/08/06 01:08:54;;;;;;;13.20;3.80;;;;;;;14.50;91.03;98910.03;4874555;29;20381;-87
2021/08/06 01:11:23;;;;;;;6.80;2.72;;;;;;;14.48;91.03;98901.34;4885901;29;20080;-86
2021/08/06 01:13:52;;;;;;;17.63;3.65;;;;;;;14.47;91.02;98910.53;4888597;29;20032;-87
2021/08/06 01:16:18;;;;;;;10.82;2.90;;;;;;;14.48;90.96;98903.22;4889799;29;20458;-86
2021/08/06 01:18:51;;;;;;;11.18;2.97;;;;;;;14.48;90.75;98901.34;4889822;29;20115;-87
2021/08/06 01:21:18;;;;;;;7.65;2.90;;;;;;;14.43;90.47;98909.38;4870330;29;20040;-88
2021/08/06 01:23:44;;;;;;;9.55;3.17;;;;;;;14.25;90.20;98864.47;4892024;29;20425;-87
2021/08/06 01:26:12;;;;;;;9.40;3.20;;;;;;;14.46;90.20;98898.06;4895826;29;20017;-87
2021/08/06 01:28:41;;;;;;;8.18;2.83;;;;;;;14.50;90.10;98909.19;4889377;29;20036;-87
2021/08/06 01:31:07;;;;;;;10.23;3.33;;;;;;;14.47;90.48;98904.28;4877107;29;20032;-87
2021/08/06 01:33:33;;;;;;;13.25;4.10;;;;;;;14.40;90.10;98895.53;4875906;29;20093;-88
2021/08/06 01:35:59;;;;;;;13.15;3.58;;;;;;;14.39;90.48;98897.41;4892298;29;20037;-87
2021/08/06 01:38:24;;;;;;;11.15;3.30;;;;;;;14.43;90.46;98908.56;4891152;29;20107;-87
2021/08/06 01:41:21;;;;;;;12.23;3.28;;;;;;;14.35;90.66;98900.84;4891496;29;20099;-87
2021/08/06 01:43:53;;;;;;;12.38;3.78;;;;;;;14.39;90.92;98913.63;4896768;29;20055;-87
2021/08/06 01:46:24;;;;;;;12.73;3.40;;;;;;;14.36;91.40;98916.00;4910207;29;20032;-87
2021/08/06 01:49:13;;;;;;;7.32;3.05;;;;;;;14.32;91.77;98915.69;4903130;29;20028;-88
2021/08/06 01:51:42;;;;;;;10.50;2.50;;;;;;;14.33;91.83;98911.91;4878022;29;20051;-87
2021/08/06 01:54:10;;;;;;;5.80;1.85;;;;;;;14.27;92.17;98912.91;4893034;29;20044;-87
2021/08/06 01:56:36;;;;;;;9.88;2.25;;;;;;;14.18;92.29;98892.72;4895014;29;20033;-87
2021/08/06 01:59:02;;;;;;;3.40;1.92;;;;;;;14.17;92.38;98897.31;4891923;29;20398;-88
2021/08/06 02:01:27;;;;;;;6.47;1.80;;;;;;;14.18;92.63;98907.06;4893942;29;20024;-88
2021/08/06 02:03:53;;;;;;;7.82;2.35;;;;;;;14.22;92.53;98919.03;4882029;29;20128;-88
2021/08/06 02:06:18;;;;;;;6.47;2.30;;;;;;;14.17;92.68;98910.03;4891187;29;20446;-87
2021/08/06 02:08:44;;;;;;;9.93;2.10;;;;;;;14.15;92.73;98914.84;4879286;29;20039;-88
2021/08/06 02:11:10;;;;;;;8.43;2.25;;;;;;;14.17;92.71;98918.94;4878576;29;20032;-88
2021/08/06 02:13:36;;;;;;;4.78;2.00;;;;;;;14.20;92.88;98926.56;4875577;29;20041;-87
2021/08/06 02:16:02;;;;;;;9.57;2.83;;;;;;;14.22;93.23;98929.03;4891480;29;20033;-87
2021/08/06 02:18:33;;;;;;;8.85;3.05;;;;;;;14.07;93.15;98911.47;4886661;29;20116;-88
2021/08/06 02:21:03;;;;;;;7.18;2.70;;;;;;;14.15;93.10;98920.25;4892630;29;20065;-88
2021/08/06 02:23:31;;;;;;;7.45;2.63;;;;;;;14.18;93.22;98933.28;4901289;29;20043;-88
2021/08/06 02:25:58;;;;;;;8.85;2.67;;;;;;;14.20;93.40;98931.97;4908431;29;20072;-87
2021/08/06 02:28:25;;;;;;;6.22;2.25;;;;;;;14.18;93.28;98935.97;4893917;29;20033;-88
2021/08/06 02:30:51;;;;;;;8.32;3.08;;;;;;;14.06;93.31;98914.44;4893409;29;20083;-87
2021/08/06 02:33:17;;;;;;;8.80;2.65;;;;;;;14.15;93.42;98934.56;4873786;29;20028;-88
2021/08/06 02:35:42;;;;;;;7.72;2.65;;;;;;;14.13;93.25;98927.78;4878225;29;20545;-87
2021/08/06 02:38:08;;;;;;;15.07;4.22;;;;;;;14.13;93.30;98922.38;4876917;29;20036;-88
2021/08/06 02:40:33;;;;;;;10.88;4.20;;;;;;;14.10;93.02;98920.16;4875856;29;20039;-87
2021/08/06 02:42:59;;;;;;;12.00;3.17;;;;;;;14.16;93.14;98930.00;4876706;29;20032;-88
2021/08/06 02:45:24;;;;;;;11.18;3.17;;;;;;;14.13;93.10;98925.91;4875791;29;20031;-87
2021/08/06 02:47:50;;;;;;;10.85;4.22;;;;;;;14.06;93.25;98919.84;4893927;29;20020;-87
2021/08/06 02:50:15;;;;;;;10.73;3.50;;;;;;;14.12;93.29;98939.66;4878255;29;20036;-87
2021/08/06 02:52:41;;;;;;;9.32;3.58;;;;;;;14.08;93.26;98932.03;4876901;29;20036;-88
2021/08/06 02:55:07;;;;;;;15.02;4.07;;;;;;;14.02;93.36;98921.38;4888812;29;20037;-87
2021/08/06 02:57:33;;;;;;;12.32;3.30;;;;;;;14.01;93.40;98912.44;4889885;29;20029;-86
2021/08/06 02:59:58;;;;;;;12.13;3.75;;;;;;;14.02;93.19;98916.78;4876206;29;20050;-88
2021/08/06 03:02:24;;;;;;;13.18;3.90;;;;;;;13.98;93.06;98909.44;4891502;29;21123;-87
2021/08/06 03:04:49;;;;;;;16.55;3.22;;;;;;;13.99;93.18;98917.28;4876033;29;20028;-87
2021/08/06 03:07:15;;;;;;;17.20;4.32;;;;;;;13.98;93.09;98914.81;4891394;29;20132;-88
2021/08/06 03:09:40;;;;;;;18.88;4.35;;;;;;;13.99;93.02;98922.69;4877032;29;20036;-88
2021/08/06 03:12:06;;;;;;;14.77;3.78;;;;;;;13.93;93.02;98914.75;4872667;29;20032;-87
2021/08/06 03:14:31;;;;;;;13.02;4.00;;;;;;;13.88;92.87;98912.75;4890596;29;20047;-87
2021/08/06 03:16:57;;;;;;;16.60;4.78;;;;;;;13.93;92.80;98926.34;4889999;29;20045;-87
2021/08/06 03:19:22;;;;;;;16.73;4.43;;;;;;;13.91;92.97;98922.25;4890443;29;20035;-86
2021/08/06 03:21:47;;;;;;;15.65;3.85;;;;;;;13.75;92.78;98897.66;4891073;29;20036;-87
2021/08/06 03:24:13;;;;;;;11.75;4.15;;;;;;;13.91;92.71;98923.06;4906874;29;20043;-87
2021/08/06 03:26:38;;;;;;;17.30;3.97;;;;;;;13.85;92.55;98913.25;4890991;29;20029;-86
2021/08/06 03:29:04;;;;;;;11.10;4.13;;;;;;;13.73;92.67;98893.56;4867298;29;20513;-87
2021/08/06 03:31:29;;;;;;;16.85;4.53;;;;;;;13.84;92.68;98912.44;4885925;29;20075;-86
2021/08/06 03:33:55;;;;;;;15.95;3.78;;;;;;;13.83;92.65;98916.16;4889996;29;20035;-85
2021/08/06 03:36:20;;;;;;;17.13;4.85;;;;;;;13.87;92.83;98919.22;4884821;29;20036;-86
2021/08/06 03:38:45;;;;;;;21.30;6.22;;;;;;;13.83;92.73;98916.16;4873244;29;20032;-87
2021/08/06 03:41:11;;;;;;;12.75;4.10;;;;;;;13.81;93.08;98918.31;4889835;29;20075;-86
2021/08/06 03:43:36;;;;;;;13.10;4.50;;;;;;;13.83;92.99;98924.28;4889365;29;20394;-87
2021/08/06 03:46:02;;;;;;;15.18;3.58;;;;;;;13.82;93.02;98924.53;4871034;29;20482;-86
2021/08/06 03:48:27;;;;;;;9.32;2.88;;;;;;;13.84;92.64;98933.22;4889318;29;21779;-87
2021/08/06 03:50:53;;;;;;;11.38;3.65;;;;;;;13.76;92.44;98922.78;4874409;29;20029;-87
2021/08/06 03:53:18;;;;;;;15.55;3.55;;;;;;;13.85;92.36;98930.25;4874243;29;20177;-87
2021/08/06 03:55:44;;;;;;;10.23;2.80;;;;;;;13.82;92.38;98930.75;4871867;29;20446;-87
2021/08/06 03:58:09;;;;;;;12.60;3.55;;;;;;;13.89;91.89;98943.28;4888760;29;20470;-87
2021/08/06 04:00:38;;;;;;;12.15;3.05;;;;;;;13.87;91.73;98942.72;4887655;29;20032;-87
2021/08/06 04:03:04;;;;;;;14.80;4.03;;;;;;;13.80;91.77;98932.06;4887373;29;20036;-86
2021/08/06 04:05:30;;;;;;;9.45;2.70;;;;;;;13.82;91.75;98941.56;4888474;29;20411;-86
2021/08/06 04:07:55;;;;;;;15.00;3.80;;;;;;;13.84;91.86;98944.03;4884792;29;20620;-86
2021/08/06 04:10:21;;;;;;;14.02;3.53;;;;;;;13.84;92.00;98946.72;4873799;29;20028;-88
2021/08/06 04:12:48;;;;;;;16.13;3.60;;;;;;;13.83;92.09;98953.19;4881079;29;20029;-88
2021/08/06 04:15:14;;;;;;;8.80;2.90;;;;;;;13.82;92.69;98956.97;4881135;29;20032;-88
2021/08/06 04:17:41;;;;;;;12.15;3.22;;;;;;;13.63;92.50;98919.31;4896639;29;20037;-88
2021/08/06 04:20:07;;;;;;;9.27;3.45;;;;;;;13.70;92.67;98932.66;4896542;29;20033;-88
2021/08/06 04:22:32;;;;;;;14.95;3.67;;;;;;;13.73;92.81;98934.88;4896456;29;20024;-88
2021/08/06 04:24:58;;;;;;;12.38;4.32;;;;;;;13.75;92.64;98937.38;4896508;29;20394;-88
2021/08/06 04:27:23;;;;;;;14.98;3.80;;;;;;;13.55;92.58;98918.91;4896275;29;20474;-88
2021/08/06 04:29:49;;;;;;;11.60;2.70;;;;;;;13.69;92.90;98928.34;4880808;29;20076;-89
2021/08/06 04:32:14;;;;;;;12.13;3.53;;;;;;;13.72;92.26;98935.16;4896398;29;20409;-88
2021/08/06 04:34:40;;;;;;;10.05;2.88;;;;;;;13.67;92.37;98943.97;4880819;29;20028;-89
2021/08/06 04:37:05;;;;;;;11.40;2.90;;;;;;;13.64;92.21;98937.16;4878663;29;20044;-89
2021/08/06 04:39:31;;;;;;;12.80;3.95;;;;;;;13.66;92.17;98938.81;4864586;29;20029;-87
2021/08/06 04:41:56;;;;;;;12.00;2.70;;;;;;;13.68;91.98;98933.97;4884676;29;20072;-87
2021/08/06 04:44:21;;;;;;;9.32;2.97;;;;;;;13.49;92.00;98909.03;4875005;29;20032;-87
2021/08/06 04:46:47;;;;;;;10.55;3.50;;;;;;;13.68;91.85;98939.38;4889852;29;20039;-86
2021/08/06 04:49:12;;;;;;;9.35;3.58;;;;;;;13.60;91.97;98932.47;4871344;29;20036;-86
2021/08/06 04:51:38;;;;;;;12.43;3.55;;;;;;;13.68;92.22;98945.63;4889203;29;20131;-87
2021/08/06 04:54:04;;;;;;;9.80;3.40;;;;;;;13.64;92.30;98947.97;4872066;29;20036;-86
2021/08/06 04:56:32;;;;;;;24.50;3.70;;;;;;;13.63;92.48;98934.72;4873742;29;20470;-87
2021/08/06 04:58:57;;;;;;;9.32;2.58;;;;;;;13.63;92.47;98938.22;4909087;29;20087;-87
2021/08/06 05:01:23;;;;;;;9.77;2.90;;;;;;;13.66;92.58;98944.22;4891668;29;20174;-87
2021/08/06 05:03:48;;;;;;;14.07;3.47;;;;;;;13.59;92.79;98941.66;4890243;29;20755;-86
2021/08/06 05:06:14;;;;;;;13.70;3.08;;;;;;;13.59;92.78;98937.06;4908760;29;20621;-87
2021/08/06 05:08:43;;;;;;;13.20;2.83;;;;;;;13.61;92.74;98942.22;4908557;29;20036;-87
2021/08/06 05:11:08;;;;;;;12.52;3.13;;;;;;;13.59;93.03;98941.66;4893354;29;20028;-87
2021/08/06 05:13:34;;;;;;;12.52;3.95;;;;;;;13.55;92.92;98932.41;4875763;29;20032;-87
2021/08/06 05:16:00;;;;;;;10.70;3.17;;;;;;;13.54;93.00;98928.03;4877116;29;20024;-87
2021/08/06 05:18:25;;;;;;;15.63;3.33;;;;;;;13.60;92.63;98932.47;4893612;29;20025;-87
2021/08/06 05:20:51;;;;;;;12.48;3.35;;;;;;;13.52;92.59;98920.19;4882997;29;20032;-88
2021/08/06 05:23:16;;;;;;;12.93;3.58;;;;;;;13.60;92.43;98933.31;4878556;29;20123;-88
2021/08/06 05:25:42;;;;;;;18.95;4.55;;;;;;;13.59;92.63;98939.75;4894208;29;20043;-87
2021/08/06 05:28:07;;;;;;;8.70;3.28;;;;;;;13.61;92.67;98940.34;4882884;29;20033;-87
2021/08/06 05:30:32;;;;;;;17.90;3.92;;;;;;;13.66;92.70;98936.13;4891971;29;20065;-87
2021/08/06 05:32:58;;;;;;;11.48;3.38;;;;;;;13.63;92.79;98929.31;4878470;29;20029;-87
2021/08/06 05:35:23;;;;;;;10.77;3.78;;;;;;;13.57;92.83;98922.97;4903088;29;20383;-88
2021/08/06 05:37:49;;;;;;;10.25;2.85;;;;;;;13.60;92.65;98932.47;4893886;29;20112;-87
2021/08/06 05:40:14;;;;;;;16.08;4.00;;;;;;;13.60;92.51;98938.72;4909073;29;20024;-87
2021/08/06 05:42:40;;;;;;;12.25;3.38;;;;;;;13.66;92.33;98936.13;4894275;29;20024;-87
2021/08/06 05:45:06;;;;;;;16.25;3.38;;;;;;;13.60;92.49;98930.63;4892547;29;20032;-87
2021/08/06 05:48:00;;;;;;;11.57;3.17;;;;;;;13.71;92.67;98947.03;4880750;29;20421;-87
2021/08/06 05:50:28;;;;;;;10.82;2.90;;;;;;;13.64;92.56;98929.06;4891999;29;20048;-86
2021/08/06 05:52:53;;;;;;;14.23;3.67;;;;;;;13.76;92.47;98947.94;4894526;29;20028;-88
2021/08/06 05:55:19;;;;;;;16.02;3.90;;;;;;;13.77;92.19;98941.47;4889072;29;20081;-88
2021/08/06 05:57:45;;;;;;;8.32;2.58;;;;;;;13.77;92.36;98944.16;4893553;29;20118;-88
2021/08/06 06:00:13;;;;;;;14.52;3.28;;;;;;;13.64;92.22;98918.25;4889678;29;20124;-87
2021/08/06 06:02:38;;;;;;;13.93;4.43;;;;;;;13.77;92.53;98937.94;4894340;29;20039;-88
2021/08/06 06:05:04;;;;;;;10.90;2.90;;;;;;;13.74;92.80;98944.66;4875757;29;20032;-87
2021/08/06 06:07:30;;;;;;;17.38;3.50;;;;;;;13.76;92.33;98944.38;4878552;29;20023;-87
2021/08/06 06:09:55;;;;;;;16.60;3.05;;;;;;;13.80;92.82;98945.56;4893380;29;20448;-88
2021/08/06 06:12:21;;;;;;;14.93;3.75;;;;;;;13.76;92.80;98931.72;4876607;29;20036;-87
2021/08/06 06:14:46;;;;;;;8.05;2.63;;;;;;;13.86;92.67;98947.28;4876132;29;20516;-87
2021/08/06 06:17:12;;;;;;;16.23;4.20;;;;;;;13.80;92.66;98951.78;4905974;29;20036;-87
2021/08/06 06:19:38;;;;;;;10.25;2.67;;;;;;;13.84;92.77;98961.06;4897486;29;20031;-88
2021/08/06 06:22:05;;;;;;;11.63;3.08;;;;;;;13.77;92.91;98943.34;4877062;29;20434;-87
2021/08/06 06:24:30;;;;;;;8.90;3.20;;;;;;;13.80;93.10;98953.66;4878075;29;20062;-87
2021/08/06 06:26:56;;;;;;;10.93;3.28;;;;;;;13.84;93.22;98966.47;4885383;29;20061;-87
2021/08/06 06:29:21;;;;;;;10.82;3.28;;;;;;;13.78;92.96;98950.38;4894493;29;20024;-87
2021/08/06 06:31:48;;;;;;;9.00;3.97;;;;;;;13.71;93.17;98938.91;4877814;29;20501;-87
2021/08/06 06:34:13;;;;;;;12.60;3.13;;;;;;;13.77;93.28;98954.97;4876753;29;20036;-88
2021/08/06 06:36:39;;;;;;;10.50;2.83;;;;;;;13.68;92.93;98951.03;4877866;29;20044;-87
2021/08/06 06:39:04;;;;;;;8.45;2.40;;;;;;;13.80;92.78;98962.59;4889014;29;20025;-87
2021/08/06 06:41:30;;;;;;;12.57;3.20;;;;;;;13.77;92.86;98952.25;4899209;29;20035;-87
2021/08/06 06:43:55;;;;;;;14.05;2.72;;;;;;;13.82;92.89;98962.34;4884498;29;20090;-86
2021/08/06 06:46:20;;;;;;;8.18;2.45;;;;;;;13.57;92.73;98922.97;4884852;29;20405;-86
2021/08/06 06:48:46;;;;;;;8.18;2.97;;;;;;;13.83;92.63;98958.59;4878501;29;20073;-86
2021/08/06 06:51:11;;;;;;;8.73;2.38;;;;;;;13.90;92.72;98959.28;4881531;29;20088;-86
2021/08/06 06:53:37;;;;;;;14.45;3.70;;;;;;;13.86;92.36;98960.78;4874285;29;20030;-86
2021/08/06 06:56:02;;;;;;;10.18;2.95;;;;;;;13.93;92.37;98963.38;4888108;29;20426;-85
2021/08/06 06:58:28;;;;;;;9.93;2.97;;;;;;;13.91;92.46;98960.09;4871559;29;20040;-86
2021/08/06 07:00:56;;;;;;;10.25;2.55;;;;;;;13.94;92.64;98960.41;4887314;29;20032;-86
2021/08/06 07:03:22;;;;;;;11.02;2.67;;;;;;;13.97;92.58;98970.75;4854274;29;20036;-86
2021/08/06 07:05:47;;;;;;;11.30;3.03;;;;;;;13.85;92.64;98945.66;4873127;29;20040;-86
2021/08/06 07:08:12;;;;;;;9.57;2.63;;;;;;;13.99;92.71;98959.69;4883082;29;20032;-87
2021/08/06 07:10:38;;;;;;;6.82;2.60;;;;;;;13.92;92.88;98940.09;4888250;29;20088;-87
2021/08/06 07:13:03;;;;;;;11.32;2.78;;;;;;;14.06;92.88;98960.38;4859700;29;20884;-87
2021/08/06 07:15:29;;;;;;;10.02;2.45;;;;;;;14.08;92.81;98961.78;4855799;29;20048;-86
2021/08/06 07:17:54;;;;;;;11.13;2.45;;;;;;;14.04;92.78;98965.19;4857043;29;20486;-87
2021/08/06 07:20:20;;;;;;;9.10;2.30;;;;;;;13.97;93.05;98964.50;4856091;29;20039;-87
2021/08/06 07:22:46;;;;;;;9.00;2.58;;;;;;;13.96;93.16;98965.59;4857655;29;20025;-87
2021/08/06 07:25:13;;;;;;;10.38;2.42;;;;;;;13.93;93.10;98969.59;4872347;29;20036;-87
2021/08/06 07:27:40;;;;;;;9.95;2.58;;;;;;;13.94;93.06;98984.72;4860863;29;20058;-88
2021/08/06 07:30:07;;;;;;;9.10;2.83;;;;;;;14.02;92.92;98983.53;4876498;29;20048;-88
2021/08/06 07:32:33;;;;;;;10.27;2.72;;;;;;;14.06;92.97;98966.59;4871920;29;20092;-87
2021/08/06 07:34:59;;;;;;;7.85;2.63;;;;;;;14.16;92.62;98973.25;4867413;29;20104;-86
2021/08/06 07:37:25;;;;;;;9.40;2.72;;;;;;;14.20;92.30;98969.81;4854609;29;20073;-86
2021/08/06 07:39:51;;;;;;;9.85;2.88;;;;;;;14.26;92.09;98978.81;4885084;29;20875;-86
2021/08/06 07:42:17;;;;;;;12.00;3.20;;;;;;;14.34;91.85;98981.13;4852178;29;20039;-86
2021/08/06 07:44:54;;;;;;;16.33;4.07;;;;;;;14.36;91.57;98976.31;4884247;29;20085;-86
2021/08/06 07:47:19;;;;;;;9.23;2.60;;;;;;;14.41;91.47;98980.97;4870426;29;20403;-86
2021/08/06 07:49:45;;;;;;;14.68;4.00;;;;;;;14.42;91.33;98985.31;4862618;29;20037;-87
2021/08/06 07:52:12;;;;;;;9.32;3.65;;;;;;;14.45;91.29;98992.97;4859293;29;20474;-86
2021/08/06 07:54:38;;;;;;;14.50;3.45;;;;;;;14.46;91.41;98983.78;4858700;29;20029;-87
2021/08/06 07:57:04;;;;;;;15.98;4.10;;;;;;;14.41;91.53;98972.88;4867586;29;20041;-87
2021/08/06 07:59:29;;;;;;;13.80;3.92;;;;;;;14.46;91.47;98965.66;4857464;29;20132;-87
2021/08/06 08:01:55;;;;;;;14.35;3.47;;;;;;;14.61;91.25;98978.66;4872241;29;20029;-87
2021/08/06 08:04:20;;;;;;;14.48;4.18;;;;;;;14.68;91.11;98984.69;4872757;29;20483;-86
2021/08/06 08:06:46;;;;;;;15.27;3.65;;;;;;;14.57;90.99;98957.75;4888270;29;20598;-87
2021/08/06 08:09:11;;;;;;;12.73;3.58;;;;;;;14.84;90.57;98974.94;4857549;29;20032;-88
2021/08/06 08:11:37;;;;;;;17.92;3.15;;;;;;;15.02;89.84;98981.97;4857677;29;20033;-87
2021/08/06 08:14:02;;;;;;;25.25;4.72;;;;;;;15.17;90.04;98984.91;4873155;29;20029;-87
2021/08/06 08:16:28;;;;;;;18.30;4.25;;;;;;;15.27;89.04;98983.41;4862560;29;20036;-86
2021/08/06 08:18:53;;;;;;;15.68;3.33;;;;;;;15.30;88.67;98983.75;4870815;29;20625;-86
2021/08/06 08:21:19;;;;;;;16.48;3.38;;;;;;;15.27;88.49;98983.41;4865614;29;20411;-86
2021/08/06 08:23:44;;;;;;;17.38;3.25;;;;;;;15.21;88.47;98985.22;4869455;29;20120;-86
2021/08/06 08:26:10;;;;;;;17.77;3.20;;;;;;;15.23;88.30;98979.56;4869862;29;20084;-86
2021/08/06 08:28:35;;;;;;;16.55;3.65;;;;;;;15.35;88.02;98970.28;4865805;29;20375;-86
2021/08/06 08:31:01;;;;;;;20.42;4.45;;;;;;;15.52;87.14;98985.66;4873698;29;20038;-85
2021/08/06 08:33:27;;;;;;;20.98;4.13;;;;;;;15.64;86.83;98988.22;4873645;29;20029;-87
2021/08/06 08:35:52;;;;;;;15.30;3.65;;;;;;;15.70;86.50;98981.84;4873186;29;20025;-86
2021/08/06 08:38:18;;;;;;;12.45;4.20;;;;;;;15.63;85.75;98981.97;4850234;29;20116;-86
2021/08/06 08:40:44;;;;;;;13.73;3.78;;;;;;;15.64;85.93;98986.34;4866608;29;20077;-86
2021/08/06 08:43:09;;;;;;;12.70;3.20;;;;;;;15.70;85.72;98989.97;4866162;29;20493;-86
2021/08/06 08:45:40;;;;;;;10.75;2.75;;;;;;;15.73;85.13;98994.88;4860017;29;20037;-87
2021/08/06 08:48:10;;;;;;;12.55;2.97;;;;;;;15.54;84.82;98968.06;4897530;29;20035;-86
2021/08/06 08:50:38;;;;;;;10.88;2.55;;;;;;;15.56;84.63;98994.91;4867702;29;20025;-87
2021/08/06 08:53:04;;;;;;;8.05;2.08;;;;;;;15.34;85.41;99009.22;4872665;29;20029;-87
2021/08/06 08:55:29;;;;;;;6.30;1.60;;;;;;;14.93;85.89;99008.66;4873389;29;20031;-87
2021/08/06 08:57:55;;;;;;;5.93;1.73;;;;;;;14.67;87.49;99017.44;4859731;29;20032;-88
2021/08/06 09:00:20;;;;;;;5.70;1.60;;;;;;;14.43;88.54;99012.13;4862831;29;20033;-88
2021/08/06 09:03:04;;;;;;;5.30;1.77;;;;;;;14.28;89.24;99003.72;4861150;29;20029;-88
2021/08/06 09:05:29;;;;;;;6.97;1.65;;;;;;;14.26;89.88;99008.56;4874142;29;20053;-88
2021/08/06 09:07:56;;;;;;;5.55;2.00;;;;;;;14.23;90.10;99007.16;4876717;29;20180;-88
2021/08/06 09:10:27;;;;;;;5.70;1.77;;;;;;;14.20;89.99;98998.72;4871133;29;20494;-89
2021/08/06 09:13:03;;;;;;;7.25;1.90;;;;;;;14.21;90.07;99009.31;4870909;29;20042;-88
2021/08/06 09:15:51;;;;;;;8.38;2.40;;;;;;;14.10;90.40;98995.81;4873071;29;20037;-88
2021/08/06 09:18:32;;;;;;;7.30;2.30;;;;;;;14.06;90.70;99007.13;4869202;29;20037;-89
2021/08/06 09:21:21;;;;;;;7.97;2.20;;;;;;;14.07;91.06;99013.34;4875841;29;20112;-88
2021/08/06 09:23:55;;;;;;;7.53;2.08;;;;;;;14.13;91.16;99001.59;4871519;29;20029;-89
2021/08/06 09:26:26;;;;;;;12.75;2.58;;;;;;;14.29;91.23;99000.00;4887147;29;20021;-89
2021/08/06 09:29:01;;;;;;;9.85;2.60;;;;;;;14.34;91.08;99008.16;4884823;29;20033;-88
2021/08/06 09:31:27;;;;;;;8.07;2.60;;;;;;;14.38;91.34;99003.91;4870716;29;20033;-88
2021/08/06 09:34:07;;;;;;;12.68;2.53;;;;;;;14.39;91.21;98994.72;4874836;29;20483;-88
2021/08/06 09:36:33;;;;;;;14.65;3.30;;;;;;;14.37;91.06;98980.66;4891437;29;20116;-88
2021/08/06 09:39:15;;;;;;;12.38;2.92;;;;;;;14.44;90.78;98980.50;4865275;29;20531;-89
2021/08/06 09:41:43;;;;;;;10.65;2.60;;;;;;;14.52;90.18;98975.53;4866170;29;20137;-88
2021/08/06 09:44:57;;;;;;;13.15;3.47;;;;;;;14.68;89.38;98992.00;4878660;29;20029;-88
2021/08/06 09:47:23;;;;;;;8.82;2.70;;;;;;;14.73;89.30;98990.19;4895481;29;20036;-88
2021/08/06 09:49:51;;;;;;;11.18;2.90;;;;;;;14.81;88.30;98985.44;4868495;29;20053;-88
2021/08/06 09:52:17;;;;;;;13.02;3.17;;;;;;;14.90;87.61;98989.41;4888131;29;20029;-88
2021/08/06 09:54:50;;;;;;;16.23;3.15;;;;;;;14.97;87.88;98990.03;4869995;29;20029;-89
2021/08/06 09:57:15;;;;;;;;;;;;;;;15.00;87.94;99000.34;4875273;29;20491;-87
2021/08/06 09:59:41;;;;;;;15.20;3.85;;;;;;;14.93;87.35;98986.19;4876427;29;19912;-88
2021/08/06 10:02:12;;;;;;;14.15;3.30;;;;;;;14.94;87.07;98988.63;4865863;29;20085;-88
2021/08/06 10:04:38;;;;;;;10.98;4.35;;;;;;;14.91;87.42;98989.13;4888514;29;20084;-87
2021/08/06 10:07:04;;;;;;;11.45;2.90;;;;;;;14.92;87.36;98981.81;4859284;29;20034;-88
2021/08/06 10:09:29;;;;;;;11.25;2.85;;;;;;;15.03;87.18;98977.38;4868617;29;20028;-87
2021/08/06 10:11:56;;;;;;;10.68;3.05;;;;;;;15.05;87.13;98984.19;4859602;29;20033;-87
2021/08/06 10:14:21;;;;;;;13.35;3.63;;;;;;;15.16;85.92;98982.44;4878360;29;20033;-88
2021/08/06 10:16:47;;;;;;;11.13;3.40;;;;;;;15.04;85.57;98957.38;4877295;29;20065;-87
2021/08/06 10:19:15;;;;;;;13.82;4.32;;;;;;;15.17;85.79;98994.94;4871062;29;20024;-86
2021/08/06 10:21:42;;;;;;;8.65;2.20;;;;;;;15.16;85.39;98993.28;4867956;29;20029;-86
2021/08/06 10:24:12;;;;;;;12.98;3.15;;;;;;;15.12;85.32;98995.66;4866191;29;20124;-86
2021/08/06 10:26:38;;;;;;;15.52;3.40;;;;;;;15.04;84.79;98989.88;4855848;29;20036;-86
2021/08/06 10:29:03;;;;;;;11.25;2.38;;;;;;;15.01;85.08;98995.78;4858316;29;20032;-87
2021/08/06 10:31:28;;;;;;;7.13;2.63;;;;;;;15.02;84.81;99010.94;4853009;29;20037;-87
2021/08/06 10:34:03;;;;;;;7.80;2.53;;;;;;;15.01;85.20;98982.25;4874310;29;20029;-86
2021/08/06 10:36:43;;;;;;;13.55;2.60;;;;;;;15.06;85.20;98996.66;4864877;29;20029;-86
2021/08/06 10:39:33;;;;;;;10.88;3.70;;;;;;;15.17;84.82;98993.03;4864716;29;20056;-86
2021/08/06 10:42:00;;;;;;;8.18;2.92;;;;;;;15.23;84.72;98987.69;4880263;29;20127;-87
2021/08/06 10:44:26;;;;;;;9.38;2.72;;;;;;;15.32;84.41;98986.19;4869617;29;20034;-86
2021/08/06 10:47:02;;;;;;;14.10;3.08;;;;;;;15.46;84.28;98982.06;4858308;29;20104;-87
2021/08/06 10:49:29;;;;;;;7.28;2.10;;;;;;;15.53;83.23;99001.66;4873433;29;20036;-85
2021/08/06 10:52:11;;;;;;;9.93;2.80;;;;;;;15.64;82.53;98994.47;4854804;29;20037;-86
2021/08/06 10:54:37;;;;;;;6.33;2.90;;;;;;;15.67;82.64;98987.75;4864539;29;20036;-86
2021/08/06 10:57:18;;;;;;;14.88;3.22;;;;;;;15.74;81.78;98982.97;4873276;29;20031;-87
2021/08/06 10:59:44;;;;;;;14.00;3.75;;;;;;;15.70;81.08;98992.69;4870644;29;20025;-86
2021/08/06 11:02:38;;;;;;;12.32;3.58;;;;;;;15.66;81.85;98984.19;4860697;29;20040;-87
2021/08/06 11:05:32;;;;;;;8.98;2.72;;;;;;;15.63;82.62;98992.81;4866652;29;20036;-87
2021/08/06 11:08:01;;;;;;;10.00;2.90;;;;;;;15.64;83.32;98983.63;4873755;29;20028;-85
2021/08/06 11:10:49;;;;;;;9.80;3.20;;;;;;;15.63;82.64;98989.31;4861152;29;20089;-86
2021/08/06 11:13:33;;;;;;;8.18;2.58;;;;;;;15.59;82.85;98987.09;4875615;29;20033;-87
2021/08/06 11:16:06;;;;;;;9.82;2.25;;;;;;;15.56;82.66;98973.25;4879641;29;20036;-86
2021/08/06 11:18:32;;;;;;;10.07;2.97;;;;;;;15.63;81.89;98976.56;4876419;29;20040;-85
2021/08/06 11:20:58;;;;;;;10.63;2.70;;;;;;;15.68;81.79;98990.19;4857725;29;20092;-85
2021/08/06 11:23:24;;;;;;;14.48;3.25;;;;;;;15.64;81.16;98975.50;4858440;29;20528;-86
2021/08/06 11:25:51;;;;;;;11.75;3.15;;;;;;;15.70;81.70;98981.84;4852710;29;20033;-85
2021/08/06 11:28:24;;;;;;;11.07;3.00;;;;;;;15.77;82.25;98988.72;4871881;29;20461;-86
2021/08/06 11:30:50;;;;;;;11.80;3.40;;;;;;;15.76;81.58;98999.78;4872052;29;20029;-86